Time;durP1;ratioP1;P1;durP2;ratioP2;P2;SDS_P1;SDS_P2;PMS_P1;PMS_P2;Temp;Humidity;BMP_temperature;BMP_pressure;BME280_temperature;BME280_humidity;BME280_pressure;Samples;Min_cycle;Max_cycle;Signal;HPM_P1;HPM_P2
2022/05/27 00:00:22;;;;;;;25.15;6.75;;;14.00;99.90;;;;;;5073143;28;20087;-75
2022/05/27 00:02:50;;;;;;;19.77;6.18;;;14.00;99.90;;;;;;5055689;28;20071;-74
2022/05/27 00:05:17;;;;;;;14.35;4.82;;;13.90;99.90;;;;;;5073281;28;20074;-72
2022/05/27 00:07:43;;;;;;;15.43;5.63;;;13.90;99.90;;;;;;5053185;28;20055;-70
2022/05/27 00:10:10;;;;;;;11.90;4.03;;;13.90;99.90;;;;;;5052125;28;20049;-71
2022/05/27 00:12:36;;;;;;;15.45;5.53;;;13.90;99.90;;;;;;5053060;28;20055;-71
2022/05/27 00:15:02;;;;;;;17.27;5.90;;;13.90;99.90;;;;;;5052933;28;20477;-71
2022/05/27 00:17:28;;;;;;;15.00;6.07;;;13.90;99.90;;;;;;5053165;28;20131;-72
2022/05/27 00:19:54;;;;;;;24.50;6.28;;;13.90;99.90;;;;;;5053067;28;20083;-70
2022/05/27 00:22:20;;;;;;;15.57;5.78;;;13.90;99.90;;;;;;5053011;28;20049;-71
2022/05/27 00:24:45;;;;;;;20.15;5.70;;;13.80;99.90;;;;;;5053053;28;20075;-76
2022/05/27 00:27:11;;;;;;;17.88;7.28;;;13.90;99.90;;;;;;5052870;28;20171;-71
2022/05/27 00:29:37;;;;;;;18.45;6.72;;;13.80;99.90;;;;;;5052834;28;20045;-70
2022/05/27 00:32:03;;;;;;;12.73;7.15;;;13.80;99.90;;;;;;5085395;28;20128;-73
2022/05/27 00:34:29;;;;;;;;;;;13.80;99.90;;;;;;5052210;28;20057;-71
2022/05/27 00:36:55;;;;;;;17.63;6.57;;;13.80;99.90;;;;;;5052925;28;19943;-71
2022/05/27 00:39:20;;;;;;;19.35;6.82;;;13.80;99.90;;;;;;5052863;28;20045;-71
2022/05/27 00:41:46;;;;;;;16.27;6.53;;;13.80;99.90;;;;;;5052823;28;20188;-73
2022/05/27 00:44:12;;;;;;;12.70;5.40;;;14.20;99.90;;;;;;5086521;28;20126;-70
2022/05/27 00:46:42;;;;;;;17.63;5.88;;;13.80;99.90;;;;;;5056704;28;20057;-70
2022/05/27 00:49:20;;;;;;;11.25;5.18;;;13.70;99.90;;;;;;5056871;28;20095;-71
2022/05/27 00:51:51;;;;;;;13.98;4.40;;;13.70;99.90;;;;;;5056840;28;20049;-73
2022/05/27 00:54:20;;;;;;;13.00;4.47;;;13.60;99.90;;;;;;5056773;28;20045;-71
2022/05/27 00:56:51;;;;;;;16.05;4.68;;;13.60;99.90;;;;;;5056468;28;20397;-71
2022/05/27 00:59:32;;;;;;;20.00;4.40;;;13.50;99.90;;;;;;5056721;28;20044;-75
2022/05/27 01:01:59;;;;;;;22.58;4.57;;;13.60;99.90;;;;;;5089293;28;20053;-71
2022/05/27 01:04:27;;;;;;;11.60;4.18;;;13.50;99.90;;;;;;5055433;28;20083;-72
2022/05/27 01:06:53;;;;;;;14.43;4.25;;;13.40;99.90;;;;;;5069673;28;20114;-71
2022/05/27 01:09:19;;;;;;;10.45;3.25;;;13.40;99.90;;;;;;5091899;28;20443;-70
2022/05/27 01:11:58;;;;;;;11.73;3.50;;;13.30;99.90;;;;;;5076153;28;20123;-71
2022/05/27 01:14:45;;;;;;;14.50;4.22;;;13.30;99.90;;;;;;5076131;28;20465;-71
2022/05/27 01:17:57;;;;;;;18.75;4.20;;;13.20;99.90;;;;;;5076162;28;20373;-76
2022/05/27 01:20:32;;;;;;;16.98;4.43;;;13.20;99.90;;;;;;4965901;28;20569;-71
2022/05/27 01:23:15;;;;;;;12.45;4.05;;;13.20;99.90;;;;;;4959254;28;20560;-70
2022/05/27 01:25:59;;;;;;;16.45;3.83;;;13.20;99.90;;;;;;4975040;28;20144;-71
2022/05/27 01:28:39;;;;;;;8.80;3.28;;;13.10;99.90;;;;;;4975111;28;20415;-72
2022/05/27 01:31:09;;;;;;;14.32;3.90;;;13.00;99.90;;;;;;4991460;28;20607;-73
2022/05/27 01:34:07;;;;;;;13.15;3.78;;;13.00;99.90;;;;;;4991179;28;20050;-71
2022/05/27 01:36:38;;;;;;;;;;;12.90;99.90;;;;;;4959265;28;20138;-71
2022/05/27 01:39:25;;;;;;;14.13;3.58;;;12.90;99.90;;;;;;4975013;28;19922;-71
2022/05/27 01:42:20;;;;;;;18.40;3.08;;;12.80;99.90;;;;;;4958948;28;20112;-72
2022/05/27 01:45:03;;;;;;;10.77;2.47;;;12.80;99.90;;;;;;4974791;28;20059;-71
2022/05/27 01:47:40;;;;;;;11.90;5.18;;;12.70;99.90;;;;;;4958798;28;20548;-74
2022/05/27 01:50:16;;;;;;;8.45;3.40;;;12.80;99.90;;;;;;4974900;28;20523;-70
2022/05/27 01:53:13;;;;;;;9.90;3.17;;;12.70;99.90;;;;;;4958843;28;20051;-71
2022/05/27 01:55:41;;;;;;;8.85;3.28;;;12.80;99.90;;;;;;4972841;28;20109;-70
2022/05/27 01:58:27;;;;;;;11.93;2.55;;;12.70;99.90;;;;;;5051224;28;20060;-71
2022/05/27 02:00:52;;;;;;;12.43;3.55;;;12.60;99.90;;;;;;5075479;28;20049;-71
2022/05/27 02:03:28;;;;;;;12.75;4.90;;;12.70;99.90;;;;;;5075605;28;20393;-72
2022/05/27 02:06:09;;;;;;;15.43;4.60;;;12.60;99.90;;;;;;5075226;28;20091;-76
2022/05/27 02:08:53;;;;;;;15.43;4.35;;;12.70;99.90;;;;;;5075183;28;20409;-69
2022/05/27 02:11:21;;;;;;;11.82;3.08;;;12.60;99.90;;;;;;5057532;28;20048;-71
2022/05/27 02:13:52;;;;;;;9.23;2.35;;;12.70;99.90;;;;;;5075197;28;20040;-75
2022/05/27 02:16:25;;;;;;;13.77;3.08;;;12.60;99.90;;;;;;5090871;28;20045;-72
2022/05/27 02:18:54;;;;;;;9.95;2.90;;;12.60;99.90;;;;;;5074952;28;20040;-72
2022/05/27 02:21:26;;;;;;;11.60;2.67;;;12.60;99.90;;;;;;5075144;28;20051;-75
2022/05/27 02:23:58;;;;;;;14.07;2.50;;;12.60;99.90;;;;;;5075021;28;20048;-72
2022/05/27 02:26:30;;;;;;;11.68;3.08;;;12.60;99.90;;;;;;5074902;28;20040;-71
2022/05/27 02:29:20;;;;;;;12.98;3.75;;;12.60;99.90;;;;;;5057309;28;20052;-71
2022/05/27 02:31:51;;;;;;;15.10;3.67;;;12.70;99.90;;;;;;5074998;28;20128;-75
2022/05/27 02:37:25;;;;;;;16.48;2.80;;;12.50;99.90;;;;;;5074631;28;20094;-70
2022/05/27 02:39:52;;;;;;;;;;;12.40;99.90;;;;;;5075002;28;20481;-73
2022/05/27 02:42:42;;;;;;;30.05;3.80;;;12.90;99.90;;;;;;5073758;28;19920;-71
2022/05/27 02:45:36;;;;;;;7.03;2.35;;;12.30;99.90;;;;;;5074526;28;20493;-71
2022/05/27 02:48:27;;;;;;;9.85;3.00;;;12.30;99.90;;;;;;5056751;28;20086;-72
2022/05/27 02:51:05;;;;;;;9.13;3.13;;;12.20;99.90;;;;;;5074575;28;20162;-71
2022/05/27 02:54:00;;;;;;;9.45;3.03;;;12.20;99.90;;;;;;5074403;28;20063;-71
2022/05/27 02:56:48;;;;;;;13.05;3.65;;;12.10;99.90;;;;;;5074074;28;20083;-71
2022/05/27 02:59:15;;;;;;;;;;;12.10;99.90;;;;;;5074832;28;20098;-72
2022/05/27 03:01:40;;;;;;;7.50;2.67;;;12.10;99.90;;;;;;5074149;28;20372;-71
2022/05/27 03:04:07;;;;;;;9.77;2.90;;;13.00;99.90;;;;;;5056559;28;20050;-74
2022/05/27 03:07:11;;;;;;;11.15;3.92;;;12.00;99.90;;;;;;5055969;28;20501;-70
2022/05/27 03:09:42;;;;;;;9.68;2.70;;;12.00;99.90;;;;;;5090006;28;20543;-71
2022/05/27 03:12:30;;;;;;;12.55;2.92;;;11.90;99.90;;;;;;5056450;28;20045;-71
2022/05/27 03:15:14;;;;;;;;;;;11.90;99.90;;;;;;5074372;28;20052;-71
2022/05/27 03:18:04;;;;;;;7.90;2.45;;;11.90;99.90;;;;;;5073815;28;19970;-72
2022/05/27 03:20:48;;;;;;;10.95;2.35;;;11.80;99.90;;;;;;5056367;28;20044;-73
2022/05/27 03:23:47;;;;;;;8.90;2.10;;;11.80;99.90;;;;;;5056247;28;20128;-70
2022/05/27 03:26:15;;;;;;;6.78;2.17;;;11.70;99.90;;;;;;5055984;28;20049;-71
2022/05/27 03:29:12;;;;;;;10.45;2.65;;;11.70;99.90;;;;;;5056181;28;20048;-70
2022/05/27 03:32:01;;;;;;;11.07;2.30;;;11.70;99.90;;;;;;5056094;28;20123;-70
2022/05/27 03:34:40;;;;;;;7.75;1.80;;;11.60;99.90;;;;;;5073437;28;20056;-73
2022/05/27 03:37:30;;;;;;;8.90;2.20;;;11.50;99.90;;;;;;5073766;28;20094;-72
2022/05/27 03:40:02;;;;;;;13.05;2.38;;;11.50;99.90;;;;;;5073599;28;20052;-71
2022/05/27 03:42:29;;;;;;;10.27;3.03;;;11.50;99.90;;;;;;5055794;28;20140;-71
2022/05/27 03:45:12;;;;;;;11.15;3.25;;;11.60;99.90;;;;;;5073437;28;20044;-74
2022/05/27 03:47:40;;;;;;;6.47;2.15;;;11.40;99.90;;;;;;5073501;28;20083;-72
2022/05/27 03:50:08;;;;;;;9.43;2.47;;;11.40;99.90;;;;;;5073425;28;20048;-70
2022/05/27 03:52:40;;;;;;;9.75;2.10;;;11.30;99.90;;;;;;5055747;28;20554;-71
2022/05/27 03:55:08;;;;;;;6.53;2.38;;;11.30;99.90;;;;;;5073230;28;20531;-73
2022/05/27 03:57:33;;;;;;;12.75;2.78;;;11.20;99.90;;;;;;5055417;28;20086;-71
2022/05/27 03:59:59;;;;;;;12.55;3.75;;;11.20;99.90;;;;;;5055485;28;20052;-71
2022/05/27 04:02:25;;;;;;;9.63;2.55;;;11.20;99.90;;;;;;5055757;28;20128;-73
2022/05/27 04:04:50;;;;;;;11.35;3.40;;;11.20;99.90;;;;;;5055536;28;20048;-70
2022/05/27 04:07:16;;;;;;;9.65;2.47;;;11.20;99.90;;;;;;5055298;28;20377;-70
2022/05/27 04:09:42;;;;;;;8.90;2.60;;;11.40;99.90;;;;;;5073076;28;20511;-70
2022/05/27 04:12:08;;;;;;;12.20;2.35;;;11.20;99.90;;;;;;5055220;28;20047;-72
2022/05/27 04:14:33;;;;;;;8.10;2.25;;;11.30;99.90;;;;;;5055375;28;20045;-74
2022/05/27 04:19:43;;;;;;;8.52;2.50;;;11.30;99.90;;;;;;5088337;28;20059;-70
2022/05/27 04:22:09;;;;;;;7.78;2.67;;;11.30;99.90;;;;;;5055377;28;20120;-73
2022/05/27 04:24:36;;;;;;;15.35;3.17;;;11.30;99.90;;;;;;5072965;28;20044;-70
2022/05/27 04:27:13;;;;;;;15.07;2.60;;;12.20;99.90;;;;;;5038330;28;20056;-70
2022/05/27 04:29:45;;;;;;;10.90;2.50;;;11.40;99.90;;;;;;5038822;28;20154;-70
2022/05/27 04:32:11;;;;;;;8.73;3.42;;;11.40;99.90;;;;;;5038729;28;20048;-72
2022/05/27 04:34:37;;;;;;;13.73;2.53;;;11.50;99.90;;;;;;5055080;28;20045;-70
2022/05/27 04:37:04;;;;;;;14.65;3.53;;;11.70;99.90;;;;;;5072882;28;20047;-70
2022/05/27 04:39:29;;;;;;;;;;;11.50;99.90;;;;;;5073243;28;20048;-71
2022/05/27 04:41:55;;;;;;;14.13;4.22;;;11.70;99.90;;;;;;5055332;28;20396;-70
2022/05/27 04:44:21;;;;;;;14.35;3.95;;;11.60;99.90;;;;;;5055036;28;20036;-71
2022/05/27 04:46:47;;;;;;;15.05;3.70;;;12.10;99.90;;;;;;5072873;28;20051;-73
2022/05/27 04:49:50;;;;;;;11.63;3.75;;;11.70;99.90;;;;;;5072860;28;20048;-76
2022/05/27 04:51:59;;;;;;;13.13;4.82;;;11.70;99.90;;;;;;5072624;28;20048;-70
2022/05/27 04:54:26;;;;;;;15.07;4.25;;;11.80;99.90;;;;;;5072935;28;20481;-74
2022/05/27 04:56:51;;;;;;;;;;;11.80;99.90;;;;;;5073113;28;20047;-70
2022/05/27 04:59:17;;;;;;;10.80;4.60;;;12.00;99.90;;;;;;5072784;28;19920;-72
2022/05/27 05:01:43;;;;;;;13.60;5.47;;;11.90;99.90;;;;;;5054498;28;20086;-70
2022/05/27 05:04:08;;;;;;;16.02;4.07;;;12.10;99.90;;;;;;5055152;28;20036;-73
2022/05/27 05:06:34;;;;;;;16.02;4.97;;;11.90;99.90;;;;;;5072378;28;20107;-71
2022/05/27 05:09:00;;;;;;;12.15;4.43;;;11.90;99.90;;;;;;5072427;28;20056;-71
2022/05/27 05:11:25;;;;;;;12.70;4.25;;;12.00;99.90;;;;;;5072617;28;20094;-71
2022/05/27 05:13:51;;;;;;;8.27;3.67;;;12.00;99.90;;;;;;5072736;28;20053;-70
2022/05/27 05:16:17;;;;;;;16.10;3.92;;;12.00;99.90;;;;;;5072599;28;20044;-70
2022/05/27 05:18:42;;;;;;;11.32;4.13;;;12.00;99.90;;;;;;5072529;28;20079;-74
2022/05/27 05:21:08;;;;;;;12.25;5.15;;;12.00;99.90;;;;;;5071581;28;20053;-73
2022/05/27 05:23:33;;;;;;;17.45;6.10;;;12.20;99.90;;;;;;5054697;28;20047;-71
2022/05/27 05:25:59;;;;;;;16.38;4.63;;;12.00;99.90;;;;;;5072530;28;20067;-70
2022/05/27 05:28:25;;;;;;;11.05;3.20;;;12.10;99.90;;;;;;5072499;28;20041;-70
2022/05/27 05:30:50;;;;;;;15.68;3.17;;;12.20;99.90;;;;;;5072993;28;20062;-70
2022/05/27 05:33:16;;;;;;;9.88;2.60;;;12.00;99.90;;;;;;5041309;28;20056;-74
2022/05/27 05:35:42;;;;;;;9.48;2.83;;;12.10;99.90;;;;;;5058168;28;20083;-73
2022/05/27 05:38:08;;;;;;;10.35;2.35;;;12.00;99.90;;;;;;5075808;28;20051;-70
2022/05/27 05:40:34;;;;;;;;;;;12.00;99.90;;;;;;5076357;28;20504;-70
2022/05/27 05:43:02;;;;;;;9.73;2.92;;;12.00;99.90;;;;;;5075946;28;19920;-73
2022/05/27 05:45:29;;;;;;;6.95;2.35;;;12.90;99.90;;;;;;5075833;28;20044;-71
2022/05/27 05:47:54;;;;;;;9.02;2.53;;;12.10;99.90;;;;;;5075576;28;20500;-71
2022/05/27 05:50:20;;;;;;;13.98;2.63;;;12.30;99.90;;;;;;5075603;28;20108;-71
2022/05/27 05:52:46;;;;;;;5.13;2.58;;;12.20;99.90;;;;;;5075604;28;20132;-71
2022/05/27 05:55:13;;;;;;;;;;;12.10;99.90;;;;;;5058377;28;20084;-71
2022/05/27 05:57:45;;;;;;;9.23;2.50;;;12.10;99.90;;;;;;5075628;28;20308;-70
2022/05/27 06:00:13;;;;;;;9.30;2.83;;;12.10;99.90;;;;;;5075562;28;20119;-70
2022/05/27 06:02:39;;;;;;;10.27;2.72;;;12.20;99.90;;;;;;5091338;28;20083;-73
2022/05/27 06:05:06;;;;;;;5.75;2.05;;;12.10;99.90;;;;;;5075452;28;20056;-70
2022/05/27 06:07:32;;;;;;;10.32;2.80;;;12.20;99.90;;;;;;5075528;28;20076;-70
2022/05/27 06:09:58;;;;;;;;;;;12.40;99.90;;;;;;5075569;28;20137;-73
2022/05/27 06:12:24;;;;;;;10.93;2.67;;;12.20;99.90;;;;;;5075235;28;19990;-71
2022/05/27 06:14:53;;;;;;;12.40;2.28;;;12.20;99.90;;;;;;5057627;28;20049;-71
2022/05/27 06:17:22;;;;;;;8.68;2.40;;;12.30;99.90;;;;;;5075115;28;20044;-70
2022/05/27 06:19:48;;;;;;;12.90;2.70;;;12.30;99.90;;;;;;5075140;28;20056;-71
2022/05/27 06:22:14;;;;;;;11.32;2.45;;;12.40;99.90;;;;;;5075044;28;20056;-70
2022/05/27 06:24:39;;;;;;;8.18;2.20;;;12.50;99.90;;;;;;5057240;28;20062;-73
2022/05/27 06:27:07;;;;;;;9.30;2.60;;;12.60;99.90;;;;;;5075055;28;20174;-70
2022/05/27 06:35:02;;;;;;;11.57;2.53;;;12.70;99.90;;;;;;5074629;28;20052;-71
2022/05/27 06:37:29;;;;;;;11.88;2.55;;;12.80;99.90;;;;;;5056950;28;20492;-70
2022/05/27 06:39:54;;;;;;;9.73;2.95;;;12.70;99.90;;;;;;5074837;28;20090;-70
2022/05/27 06:42:22;;;;;;;11.50;2.15;;;12.70;99.90;;;;;;5055399;28;20517;-71
2022/05/27 06:44:48;;;;;;;13.13;2.50;;;12.70;99.90;;;;;;5074559;28;20056;-72
2022/05/27 06:47:14;;;;;;;9.60;2.30;;;12.70;99.90;;;;;;5073960;28;20041;-72
2022/05/27 06:49:44;;;;;;;15.20;2.10;;;12.70;99.90;;;;;;5074230;28;20484;-70
2022/05/27 06:52:11;;;;;;;9.38;2.45;;;12.70;99.90;;;;;;5074455;28;20051;-71
2022/05/27 06:54:37;;;;;;;10.00;2.38;;;12.60;99.90;;;;;;5074424;28;20046;-70
2022/05/27 06:57:05;;;;;;;7.50;2.00;;;12.60;99.90;;;;;;5056395;28;20045;-71
2022/05/27 06:59:32;;;;;;;10.10;3.30;;;12.70;99.90;;;;;;5074105;28;20409;-71
2022/05/27 07:01:58;;;;;;;11.98;3.10;;;12.60;99.90;;;;;;5074293;28;20044;-71
2022/05/27 07:04:23;;;;;;;9.90;2.45;;;12.60;99.90;;;;;;5074304;28;20518;-71
2022/05/27 07:06:49;;;;;;;8.73;2.33;;;12.80;99.90;;;;;;5089248;28;20056;-71
2022/05/27 07:09:21;;;;;;;8.02;1.90;;;12.60;99.90;;;;;;5074163;28;20040;-71
2022/05/27 07:11:49;;;;;;;9.88;2.17;;;12.70;99.90;;;;;;5073899;28;20047;-71
2022/05/27 07:14:15;;;;;;;12.25;2.53;;;12.70;99.90;;;;;;5089838;28;20052;-74
2022/05/27 07:16:42;;;;;;;9.38;1.92;;;12.70;99.90;;;;;;5073826;28;20075;-75
2022/05/27 07:19:09;;;;;;;9.75;2.20;;;12.80;99.90;;;;;;5073748;28;20293;-71
2022/05/27 07:21:39;;;;;;;11.07;2.50;;;12.70;99.90;;;;;;5073964;28;20036;-71
2022/05/27 07:24:09;;;;;;;10.40;1.95;;;12.70;99.90;;;;;;5073305;28;20037;-70
2022/05/27 07:26:36;;;;;;;9.65;2.25;;;12.70;99.90;;;;;;5073667;28;20048;-70
2022/05/27 07:29:02;;;;;;;10.57;2.22;;;12.80;99.90;;;;;;5073681;28;20041;-71
2022/05/27 07:31:29;;;;;;;4.43;1.67;;;12.90;99.90;;;;;;5056018;28;20551;-72
2022/05/27 07:33:55;;;;;;;7.38;1.80;;;12.90;99.90;;;;;;5073858;28;20477;-74
2022/05/27 07:36:21;;;;;;;14.40;2.38;;;12.90;99.90;;;;;;5056017;28;20424;-71
2022/05/27 07:38:50;;;;;;;9.95;2.13;;;13.00;99.90;;;;;;5073611;28;20050;-70
2022/05/27 07:41:17;;;;;;;13.45;2.60;;;13.00;99.90;;;;;;5055067;28;20057;-70
2022/05/27 07:43:43;;;;;;;6.18;1.20;;;13.10;99.90;;;;;;5073473;28;20049;-70
2022/05/27 07:46:09;;;;;;;9.02;2.35;;;13.10;99.90;;;;;;5055453;28;20058;-70
2022/05/27 07:48:34;;;;;;;9.70;1.95;;;13.20;99.90;;;;;;5054977;28;20063;-70
2022/05/27 07:51:00;;;;;;;9.48;2.03;;;13.20;99.90;;;;;;5073618;28;20135;-73
2022/05/27 07:53:26;;;;;;;11.48;2.67;;;13.20;99.90;;;;;;5072793;28;20052;-71
2022/05/27 07:55:52;;;;;;;5.15;1.77;;;13.20;99.90;;;;;;5073006;28;20091;-71
2022/05/27 07:58:17;;;;;;;7.15;1.83;;;13.20;99.90;;;;;;5073330;28;20045;-73
2022/05/27 08:00:44;;;;;;;9.57;2.00;;;13.20;99.90;;;;;;5073209;28;20097;-70
2022/05/27 08:03:09;;;;;;;;;;;13.20;99.90;;;;;;5073480;28;20075;-71
2022/05/27 08:05:35;;;;;;;6.25;2.00;;;13.30;99.90;;;;;;5072798;28;20360;-70
2022/05/27 08:08:02;;;;;;;5.60;2.08;;;13.30;99.90;;;;;;5073289;28;20066;-70
2022/05/27 08:10:31;;;;;;;7.97;2.17;;;13.40;99.90;;;;;;5073152;28;20102;-70
2022/05/27 08:12:57;;;;;;;9.43;2.00;;;13.50;99.90;;;;;;5072923;28;20485;-71
2022/05/27 08:15:22;;;;;;;8.95;1.65;;;13.40;99.90;;;;;;5038129;28;20052;-73
2022/05/27 08:17:48;;;;;;;12.45;2.85;;;13.50;99.90;;;;;;5054571;28;20064;-70
2022/05/27 08:20:19;;;;;;;5.93;1.60;;;13.50;99.90;;;;;;5055547;28;20060;-71
2022/05/27 08:22:49;;;;;;;8.73;2.67;;;13.60;99.90;;;;;;5073121;28;20050;-70
2022/05/27 08:25:15;;;;;;;7.30;2.22;;;13.60;99.90;;;;;;5073038;28;20389;-72
2022/05/27 08:27:41;;;;;;;8.35;1.98;;;13.70;99.90;;;;;;5055053;28;20055;-70
2022/05/27 08:30:10;;;;;;;10.40;3.20;;;13.60;99.90;;;;;;5072909;28;20223;-72
2022/05/27 08:32:36;;;;;;;3.72;1.58;;;13.70;99.90;;;;;;5072707;28;20041;-72
2022/05/27 08:38:03;;;;;;;9.40;2.60;;;13.90;99.90;;;;;;5072892;28;20055;-71
2022/05/27 08:40:50;;;;;;;6.75;1.80;;;13.90;99.90;;;;;;5072850;28;20048;-71
2022/05/27 08:43:52;;;;;;;8.30;2.90;;;14.00;99.90;;;;;;5072715;28;20139;-71
2022/05/27 08:46:29;;;;;;;10.32;2.38;;;13.90;99.90;;;;;;5010847;28;20765;-70
2022/05/27 08:49:00;;;;;;;16.45;2.20;;;13.70;99.90;;;;;;5010830;28;20604;-70
2022/05/27 08:51:35;;;;;;;4.25;1.63;;;13.80;99.90;;;;;;4978503;28;20066;-71
2022/05/27 08:54:13;;;;;;;8.85;2.00;;;13.80;99.90;;;;;;5010830;28;20602;-71
2022/05/27 08:59:50;;;;;;;7.57;1.85;;;14.00;99.90;;;;;;5010931;28;20057;-73
2022/05/27 09:02:18;;;;;;;6.85;1.80;;;14.10;99.90;;;;;;5017940;28;20045;-75
2022/05/27 09:04:43;;;;;;;10.20;2.25;;;14.10;99.90;;;;;;5028208;28;20080;-71
2022/05/27 09:07:30;;;;;;;12.32;2.92;;;14.00;99.90;;;;;;5005067;28;20398;-71
2022/05/27 09:09:57;;;;;;;8.75;2.13;;;13.90;99.90;;;;;;5034226;28;20053;-75
2022/05/27 09:12:54;;;;;;;6.57;1.30;;;13.90;99.90;;;;;;5033901;28;20121;-71
2022/05/27 09:15:41;;;;;;;6.43;1.55;;;14.00;99.90;;;;;;5029779;28;20052;-73
2022/05/27 09:18:13;;;;;;;7.03;1.30;;;14.00;99.90;;;;;;5014394;28;20100;-70
2022/05/27 09:20:46;;;;;;;8.82;1.83;;;14.10;99.90;;;;;;5014284;28;20052;-71
2022/05/27 09:23:23;;;;;;;10.35;1.60;;;14.10;99.90;;;;;;5057644;28;20057;-71
2022/05/27 09:26:01;;;;;;;8.38;1.65;;;14.20;99.90;;;;;;5091472;28;20060;-70
2022/05/27 09:28:36;;;;;;;6.57;1.92;;;14.30;99.90;;;;;;5076064;28;20052;-70
2022/05/27 09:31:05;;;;;;;7.90;1.67;;;14.30;99.90;;;;;;5058258;28;20080;-71
2022/05/27 09:33:33;;;;;;;7.50;1.65;;;14.20;99.90;;;;;;5076021;28;20056;-70
2022/05/27 09:36:02;;;;;;;5.78;1.50;;;14.10;99.90;;;;;;5075951;28;20397;-69
2022/05/27 09:38:31;;;;;;;8.38;1.83;;;14.10;99.90;;;;;;5075978;28;20048;-70
2022/05/27 09:41:08;;;;;;;3.97;1.48;;;14.00;99.90;;;;;;5075437;28;20049;-73
2022/05/27 09:43:49;;;;;;;6.82;1.48;;;14.00;99.90;;;;;;5075725;28;20048;-70
2022/05/27 09:46:28;;;;;;;10.02;1.65;;;14.10;99.90;;;;;;5074823;28;20044;-71
2022/05/27 09:48:58;;;;;;;7.88;1.63;;;14.10;99.90;;;;;;5075490;28;20052;-70
2022/05/27 09:51:25;;;;;;;11.90;1.70;;;14.00;99.90;;;;;;5057728;28;20063;-71
2022/05/27 09:54:29;;;;;;;7.32;2.00;;;14.10;99.90;;;;;;5075321;28;20479;-69
2022/05/27 09:57:17;;;;;;;9.05;1.60;;;14.10;99.90;;;;;;5075285;28;20106;-71
2022/05/27 09:59:46;;;;;;;7.38;2.20;;;14.30;99.90;;;;;;5075443;28;20048;-71
2022/05/27 10:02:16;;;;;;;5.13;1.50;;;14.30;99.90;;;;;;5075283;28;20048;-70
2022/05/27 10:04:52;;;;;;;7.40;1.55;;;14.30;99.90;;;;;;5075037;28;20451;-70
2022/05/27 10:07:50;;;;;;;7.88;1.73;;;14.30;99.90;;;;;;5075192;28;20149;-70
2022/05/27 10:10:35;;;;;;;;;;;14.30;99.90;;;;;;5075040;28;20110;-75
2022/05/27 10:13:30;;;;;;;8.60;1.60;;;14.20;99.90;;;;;;5074624;28;19920;-71
2022/05/27 10:16:10;;;;;;;7.68;1.45;;;14.20;99.90;;;;;;5074981;28;20447;-71
2022/05/27 10:18:38;;;;;;;14.70;1.60;;;14.20;99.90;;;;;;5056660;28;20485;-72
2022/05/27 10:21:17;;;;;;;5.35;1.35;;;14.20;99.90;;;;;;5074983;28;20055;-71
2022/05/27 10:23:48;;;;;;;6.60;1.65;;;14.20;99.90;;;;;;5057137;28;20052;-72
2022/05/27 10:26:32;;;;;;;10.15;2.05;;;14.70;99.90;;;;;;5074367;28;20050;-71
2022/05/27 10:29:15;;;;;;;13.50;1.95;;;14.20;99.90;;;;;;5074884;28;20103;-71
2022/05/27 10:31:54;;;;;;;5.63;1.20;;;14.30;99.90;;;;;;5056534;28;20420;-71
2022/05/27 10:34:37;;;;;;;11.63;1.50;;;14.30;99.90;;;;;;5074860;28;20056;-72
2022/05/27 10:37:22;;;;;;;5.15;1.42;;;14.70;99.90;;;;;;5074701;28;20132;-71
2022/05/27 10:40:15;;;;;;;7.55;1.20;;;14.30;99.90;;;;;;5074662;28;20052;-73
2022/05/27 10:43:05;;;;;;;11.07;1.95;;;14.30;99.90;;;;;;5074259;28;20049;-71
2022/05/27 10:45:38;;;;;;;9.70;1.95;;;14.30;99.90;;;;;;5074346;28;20048;-73
2022/05/27 10:48:14;;;;;;;4.57;1.30;;;14.20;99.90;;;;;;5074418;28;20049;-70
2022/05/27 10:50:56;;;;;;;7.15;1.40;;;14.10;99.90;;;;;;5056753;28;20049;-70
2022/05/27 10:53:24;;;;;;;33.40;3.15;;;14.10;99.90;;;;;;5080673;28;20045;-74
2022/05/27 10:56:24;;;;;;;12.88;2.10;;;14.20;99.90;;;;;;5080317;28;20051;-70
2022/05/27 11:02:37;;;;;;;15.48;2.47;;;14.30;99.90;;;;;;5094725;28;20468;-71
2022/05/27 11:05:44;;;;;;;17.90;3.20;;;14.20;99.90;;;;;;4992763;28;20068;-70
2022/05/27 11:08:09;;;;;;;9.75;2.17;;;14.30;99.90;;;;;;4934739;28;20490;-71
2022/05/27 11:10:50;;;;;;;7.32;2.30;;;14.40;99.90;;;;;;4933780;29;20127;-70
2022/05/27 11:16:46;;;;;;;7.65;1.75;;;14.20;99.90;;;;;;4934272;29;20079;-69
2022/05/27 11:19:52;;;;;;;8.65;2.13;;;14.20;99.90;;;;;;4934675;29;20052;-71
2022/05/27 11:22:35;;;;;;;9.20;1.90;;;14.20;99.90;;;;;;4918914;29;20521;-70
2022/05/27 11:25:01;;;;;;;6.32;2.13;;;14.20;99.90;;;;;;4918519;29;20504;-70
2022/05/27 11:27:58;;;;;;;7.95;1.85;;;14.10;99.90;;;;;;4934564;29;20067;-70
2022/05/27 11:30:23;;;;;;;9.18;2.45;;;14.10;99.90;;;;;;4934519;29;20417;-70
2022/05/27 11:33:15;;;;;;;11.98;2.50;;;14.10;99.90;;;;;;4918632;29;20065;-70
2022/05/27 11:35:59;;;;;;;8.73;1.70;;;14.20;99.90;;;;;;4918271;29;20052;-70
2022/05/27 11:38:42;;;;;;;8.55;2.00;;;14.30;99.90;;;;;;4934373;29;20050;-72
2022/05/27 11:41:27;;;;;;;7.93;1.50;;;14.30;99.90;;;;;;4967029;28;20529;-70
2022/05/27 11:44:11;;;;;;;9.57;2.15;;;14.40;99.90;;;;;;5073295;28;20618;-73
2022/05/27 11:47:14;;;;;;;26.95;3.42;;;14.30;99.90;;;;;;5078763;28;20043;-72
2022/05/27 11:50:19;;;;;;;6.57;2.50;;;14.30;99.90;;;;;;5093644;28;20047;-70
2022/05/27 11:53:03;;;;;;;22.98;2.78;;;14.20;99.90;;;;;;5093758;28;20051;-71
2022/05/27 11:56:06;;;;;;;25.15;3.72;;;14.20;99.90;;;;;;5075709;28;20090;-70
2022/05/27 11:58:38;;;;;;;9.20;1.42;;;14.10;99.90;;;;;;5093099;28;20055;-69
2022/05/27 12:01:11;;;;;;;14.13;3.05;;;14.10;99.90;;;;;;5073397;28;20520;-70
2022/05/27 12:04:05;;;;;;;14.57;1.75;;;14.20;99.90;;;;;;5073292;28;20048;-70
2022/05/27 12:06:47;;;;;;;18.23;2.35;;;14.40;99.90;;;;;;5070238;28;20099;-71
2022/05/27 12:09:29;;;;;;;6.85;1.35;;;14.30;99.90;;;;;;5089558;28;20073;-70
2022/05/27 12:12:06;;;;;;;7.93;1.45;;;14.20;99.90;;;;;;5093392;28;20518;-71
2022/05/27 12:14:39;;;;;;;20.60;3.10;;;14.30;99.90;;;;;;5075628;28;20044;-70
2022/05/27 12:17:21;;;;;;;8.63;1.63;;;14.30;99.90;;;;;;5075208;28;20153;-71
2022/05/27 12:19:59;;;;;;;16.52;2.47;;;14.30;99.90;;;;;;5093306;28;20098;-70
2022/05/27 12:22:32;;;;;;;20.25;1.52;;;14.30;99.90;;;;;;5093345;28;20458;-70
2022/05/27 12:25:28;;;;;;;12.77;2.33;;;14.30;99.90;;;;;;5093252;28;20055;-73
2022/05/27 12:27:58;;;;;;;15.73;2.65;;;14.20;99.90;;;;;;5088811;28;20056;-71
2022/05/27 12:30:39;;;;;;;19.23;2.45;;;14.20;99.90;;;;;;5093061;28;20131;-72
2022/05/27 12:33:06;;;;;;;19.73;3.30;;;14.10;99.90;;;;;;5093212;28;20040;-70
2022/05/27 12:35:31;;;;;;;10.65;1.80;;;14.20;99.90;;;;;;5093124;28;20090;-70
2022/05/27 12:37:58;;;;;;;6.53;2.05;;;14.30;99.90;;;;;;5093221;28;20052;-70
2022/05/27 12:40:30;;;;;;;8.68;1.60;;;14.10;99.90;;;;;;5076358;28;20484;-70
2022/05/27 12:43:00;;;;;;;12.48;1.92;;;14.10;99.90;;;;;;5079313;28;20051;-70
2022/05/27 12:45:46;;;;;;;11.60;1.35;;;14.20;99.90;;;;;;5097203;28;20101;-73
2022/05/27 12:48:31;;;;;;;6.57;1.60;;;14.00;99.90;;;;;;5097156;28;20048;-70
2022/05/27 12:51:18;;;;;;;10.38;1.98;;;13.90;99.90;;;;;;5096687;28;20127;-70
2022/05/27 12:53:54;;;;;;;;;;;14.00;99.90;;;;;;5096040;28;20044;-71
2022/05/27 13:02:16;;;;;;;16.63;2.83;;;14.20;99.90;;;;;;5096520;28;20174;-70
2022/05/27 13:04:52;;;;;;;32.80;5.50;;;14.10;99.90;;;;;;5096603;28;20511;-70
2022/05/27 13:07:40;;;;;;;7.60;2.40;;;14.10;99.90;;;;;;5096393;28;20726;-70
2022/05/27 13:10:17;;;;;;;;;;;14.10;99.90;;;;;;5079331;28;20044;-69
2022/05/27 13:12:48;;;;;;;15.25;1.73;;;14.10;99.90;;;;;;5096368;28;19981;-69
2022/05/27 13:15:31;;;;;;;9.63;1.52;;;14.30;99.90;;;;;;5096691;28;20047;-70
2022/05/27 13:18:13;;;;;;;8.50;1.42;;;14.20;99.90;;;;;;5096474;28;20044;-73
2022/05/27 13:20:49;;;;;;;11.75;1.48;;;14.30;99.90;;;;;;5096418;28;20807;-70
2022/05/27 13:23:15;;;;;;;8.43;1.85;;;14.20;99.90;;;;;;5096339;28;20094;-70
2022/05/27 13:25:56;;;;;;;9.30;2.03;;;14.10;99.90;;;;;;5096372;28;20442;-70
2022/05/27 13:28:28;;;;;;;14.07;2.35;;;14.20;99.90;;;;;;5096301;28;20048;-70
2022/05/27 13:31:02;;;;;;;10.27;1.98;;;14.40;99.90;;;;;;5096261;28;20048;-70
2022/05/27 13:33:52;;;;;;;33.05;4.70;;;14.40;99.90;;;;;;5095837;28;20058;-71
2022/05/27 13:36:21;;;;;;;18.52;2.80;;;14.50;99.90;;;;;;5096243;28;20392;-70
2022/05/27 13:39:02;;;;;;;33.22;4.78;;;14.50;99.90;;;;;;5096259;28;20044;-69
2022/05/27 13:41:35;;;;;;;89.20;9.60;;;14.50;99.90;;;;;;5096029;28;20058;-70
2022/05/27 13:44:01;;;;;;;9.27;1.92;;;14.40;99.90;;;;;;5095760;28;20492;-70
2022/05/27 13:46:31;;;;;;;10.63;2.10;;;14.40;99.90;;;;;;5096112;28;20484;-72
2022/05/27 13:49:15;;;;;;;20.38;2.55;;;14.40;99.90;;;;;;5095992;28;20132;-70